^^
Grace C. Lehan Memorial Weather Station Historical Data
Daily Summary for June 4, 2022 Units:  Both    English   Metric
Daily Weekly Monthly Yearly
  High: Low: Average:
Temperature: 21.1 °F /  -6.1 °C 16.1 °F /  -8.8 °C 18.6 °F /  -7.4 °C
Dew Point: 11.8 °F /  -11.2 °C 8.5 °F /  -13.1 °C 9.7 °F /  -12.4 °C
Humidity: 82.4% 60.1% 68%
Wind Speed: 6.1mph /  9.8km/h - 1.5mph /  2.4km/h
Wind Gust: 16mph /  25.7km/h - -
Wind- - NW
Pressure: 30.38 in /  1028.7 hPa 30.19 in /  1022.2 hPa -
Precipitation: 0.00 in /  0 mm    
 
 
Tabular Data for June 4, 2022
Time Temperature Dew Point Pressure Wind Wind Speed Wind Gust Humidity Rainfall Rate (Hourly) solar
00:04 21.1 °F /  -6.1 °C 10.8 °F /  -11.8 °C 30.19in /  1022.2hPa NW 2.9mph /  4.7km/h 12mph /  19.3km/h 64% 0.00in /  0mm 0 W/m2
00:09 21.1 °F /  -6.1 °C 10.8 °F /  -11.8 °C 30.20in /  1022.6hPa NW 1.7mph /  2.7km/h 9mph /  14.5km/h 64% 0.00in /  0mm 0 W/m2
00:14 21 °F /  -6.1 °C 10.8 °F /  -11.8 °C 30.20in /  1022.6hPa NW 3.8mph /  6.1km/h 9mph /  14.5km/h 64% 0.00in /  0mm 0 W/m2
00:19 21 °F /  -6.1 °C 10.5 °F /  -11.9 °C 30.20in /  1022.6hPa NW 4.6mph /  7.4km/h 10mph /  16.1km/h 63.4% 0.00in /  0mm 0 W/m2
00:24 21 °F /  -6.1 °C 10.4 °F /  -12 °C 30.20in /  1022.6hPa NW 4.4mph /  7.1km/h 11mph /  17.7km/h 63% 0.00in /  0mm 0 W/m2
00:29 20.9 °F /  -6.2 °C 10.1 °F /  -12.2 °C 30.20in /  1022.6hPa NW 2.4mph /  3.9km/h 11mph /  17.7km/h 62.6% 0.00in /  0mm 0 W/m2
00:34 20.9 °F /  -6.2 °C 10.1 °F /  -12.2 °C 30.21in /  1022.9hPa NW 3.8mph /  6.1km/h 11mph /  17.7km/h 62.5% 0.00in /  0mm 0 W/m2
00:39 20.9 °F /  -6.2 °C 9.8 °F /  -12.3 °C 30.21in /  1022.9hPa NW 5.2mph /  8.4km/h 13mph /  20.9km/h 61.5% 0.00in /  0mm 0 W/m2
00:44 20.9 °F /  -6.2 °C 9.6 °F /  -12.4 °C 30.21in /  1022.9hPa NW 3.7mph /  6km/h 13mph /  20.9km/h 61% 0.00in /  0mm 0 W/m2
00:49 20.8 °F /  -6.2 °C 9.5 °F /  -12.5 °C 30.21in /  1022.9hPa NW 2.5mph /  4km/h 13mph /  20.9km/h 61% 0.00in /  0mm 0 W/m2
00:54 20.8 °F /  -6.2 °C 9.5 °F /  -12.5 °C 30.21in /  1022.9hPa NW 1mph /  1.6km/h 13mph /  20.9km/h 61% 0.00in /  0mm 0 W/m2
00:59 20.8 °F /  -6.2 °C 9.5 °F /  -12.5 °C 30.21in /  1022.9hPa NW 0.5mph /  0.8km/h 13mph /  20.9km/h 61% 0.00in /  0mm 0 W/m2
01:04 20.7 °F /  -6.3 °C 9.4 °F /  -12.6 °C 30.21in /  1022.9hPa WNW 1.7mph /  2.7km/h 13mph /  20.9km/h 61% 0.00in /  0mm 0 W/m2
01:09 20.6 °F /  -6.3 °C 9.1 °F /  -12.7 °C 30.22in /  1023.2hPa NW 0.1mph /  0.2km/h 9mph /  14.5km/h 60.4% 0.00in /  0mm 0 W/m2
01:14 20.5 °F /  -6.4 °C 9.2 °F /  -12.7 °C 30.22in /  1023.2hPa NW 0.3mph /  0.5km/h 9mph /  14.5km/h 61% 0.00in /  0mm 0 W/m2
01:19 20.4 °F /  -6.4 °C 9.1 °F /  -12.7 °C 30.23in /  1023.6hPa NW 0.3mph /  0.5km/h 9mph /  14.5km/h 61% 0.00in /  0mm 0 W/m2
01:24 20.4 °F /  -6.4 °C 9.1 °F /  -12.7 °C 30.23in /  1023.6hPa NW 0.3mph /  0.5km/h 9mph /  14.5km/h 61.1% 0.00in /  0mm 0 W/m2
01:29 20.3 °F /  -6.5 °C 9.2 °F /  -12.7 °C 30.23in /  1023.6hPa NW 1.2mph /  1.9km/h 9mph /  14.5km/h 61.5% 0.00in /  0mm 0 W/m2
01:34 20.2 °F /  -6.6 °C 8.9 °F /  -12.8 °C 30.22in /  1023.2hPa NW 2.1mph /  3.4km/h 9mph /  14.5km/h 61% 0.00in /  0mm 0 W/m2
01:39 20.2 °F /  -6.6 °C 8.9 °F /  -12.8 °C 30.23in /  1023.6hPa NW 2.1mph /  3.4km/h 7mph /  11.3km/h 61% 0.00in /  0mm 0 W/m2
01:44 20.1 °F /  -6.6 °C 8.5 °F /  -13.1 °C 30.24in /  1023.9hPa NW 1.7mph /  2.7km/h 8mph /  12.9km/h 60.1% 0.00in /  0mm 0 W/m2
01:49 20.1 °F /  -6.6 °C 8.7 °F /  -12.9 °C 30.24in /  1023.9hPa NW 3mph /  4.8km/h 10mph /  16.1km/h 60.7% 0.00in /  0mm 0 W/m2
01:54 20 °F /  -6.7 °C 8.5 °F /  -13.1 °C 30.25in /  1024.3hPa NNW 2.2mph /  3.5km/h 10mph /  16.1km/h 60.3% 0.00in /  0mm 0 W/m2
01:59 20 °F /  -6.7 °C 8.7 °F /  -12.9 °C 30.24in /  1023.9hPa NW 2.2mph /  3.5km/h 10mph /  16.1km/h 61% 0.00in /  0mm 0 W/m2
02:04 20 °F /  -6.7 °C 8.7 °F /  -12.9 °C 30.25in /  1024.3hPa NW 2.9mph /  4.7km/h 10mph /  16.1km/h 61% 0.00in /  0mm 0 W/m2
02:09 20 °F /  -6.7 °C 8.7 °F /  -12.9 °C 30.25in /  1024.3hPa NNW 4.1mph /  6.6km/h 10mph /  16.1km/h 61% 0.00in /  0mm 0 W/m2
02:14 19.9 °F /  -6.7 °C 8.7 °F /  -12.9 °C 30.25in /  1024.3hPa NW 3.3mph /  5.3km/h 10mph /  16.1km/h 61% 0.00in /  0mm 0 W/m2
02:19 19.9 °F /  -6.7 °C 8.7 °F /  -12.9 °C 30.25in /  1024.3hPa NW 5mph /  8km/h 11mph /  17.7km/h 61% 0.00in /  0mm 0 W/m2
02:24 19.9 °F /  -6.7 °C 8.6 °F /  -13 °C 30.25in /  1024.3hPa NW 5.1mph /  8.2km/h 14mph /  22.5km/h 61% 0.00in /  0mm 0 W/m2
02:29 19.9 °F /  -6.7 °C 8.6 °F /  -13 °C 30.25in /  1024.3hPa NW 5.8mph /  9.3km/h 14mph /  22.5km/h 61% 0.00in /  0mm 0 W/m2
02:34 19.8 °F /  -6.8 °C 8.6 °F /  -13 °C 30.25in /  1024.3hPa NW 4.8mph /  7.7km/h 14mph /  22.5km/h 61% 0.00in /  0mm 0 W/m2
02:39 19.8 °F /  -6.8 °C 8.5 °F /  -13.1 °C 30.25in /  1024.3hPa NW 6.1mph /  9.8km/h 13mph /  20.9km/h 61% 0.00in /  0mm 0 W/m2
02:44 19.7 °F /  -6.8 °C 8.6 °F /  -13 °C 30.26in /  1024.6hPa NW 3.5mph /  5.6km/h 13mph /  20.9km/h 61.4% 0.00in /  0mm 0 W/m2
02:49 19.5 °F /  -6.9 °C 8.7 °F /  -12.9 °C 30.26in /  1024.6hPa NW 4.6mph /  7.4km/h 13mph /  20.9km/h 62% 0.00in /  0mm 0 W/m2
02:54 19.5 °F /  -6.9 °C 8.8 °F /  -12.9 °C 30.26in /  1024.6hPa NW 3.2mph /  5.1km/h 13mph /  20.9km/h 62.5% 0.00in /  0mm 0 W/m2
02:59 19.4 °F /  -7 °C 8.8 °F /  -12.9 °C 30.27in /  1024.9hPa NW 2.7mph /  4.3km/h 13mph /  20.9km/h 63% 0.00in /  0mm 0 W/m2
03:04 19.3 °F /  -7.1 °C 8.8 °F /  -12.9 °C 30.27in /  1024.9hPa NW 2.5mph /  4km/h 13mph /  20.9km/h 63% 0.00in /  0mm 0 W/m2
03:09 19.2 °F /  -7.1 °C 8.7 °F /  -12.9 °C 30.27in /  1024.9hPa NW 6mph /  9.7km/h 16mph /  25.7km/h 63% 0.00in /  0mm 0 W/m2
03:14 19.1 °F /  -7.2 °C 8.6 °F /  -13 °C 30.27in /  1024.9hPa NW 4mph /  6.4km/h 16mph /  25.7km/h 63.1% 0.00in /  0mm 0 W/m2
03:19 19.1 °F /  -7.2 °C 8.9 °F /  -12.8 °C 30.26in /  1024.6hPa NNW 2.3mph /  3.7km/h 16mph /  25.7km/h 63.8% 0.00in /  0mm 0 W/m2
03:24 19.1 °F /  -7.2 °C 8.9 °F /  -12.8 °C 30.27in /  1024.9hPa NNW 0.7mph /  1.1km/h 16mph /  25.7km/h 63.9% 0.00in /  0mm 0 W/m2
03:29 19 °F /  -7.2 °C 8.8 °F /  -12.9 °C 30.27in /  1024.9hPa NW 1.9mph /  3.1km/h 16mph /  25.7km/h 64% 0.00in /  0mm 0 W/m2
03:34 18.9 °F /  -7.3 °C 8.8 °F /  -12.9 °C 30.27in /  1024.9hPa NW 3.6mph /  5.8km/h 16mph /  25.7km/h 64% 0.00in /  0mm 0 W/m2
03:39 18.8 °F /  -7.3 °C 9 °F /  -12.8 °C 30.28in /  1025.3hPa NW 0.9mph /  1.4km/h 10mph /  16.1km/h 65% 0.00in /  0mm 0 W/m2
03:44 18.8 °F /  -7.3 °C 9 °F /  -12.8 °C 30.28in /  1025.3hPa NW 0.8mph /  1.3km/h 10mph /  16.1km/h 65.1% 0.00in /  0mm 0 W/m2
03:49 18.7 °F /  -7.4 °C 9.3 °F /  -12.6 °C 30.28in /  1025.3hPa NW 1.6mph /  2.6km/h 10mph /  16.1km/h 66% 0.00in /  0mm 0 W/m2
03:54 18.6 °F /  -7.4 °C 9.2 °F /  -12.7 °C 30.28in /  1025.3hPa WNW 3.1mph /  5km/h 10mph /  16.1km/h 66% 0.00in /  0mm 0 W/m2
03:59 18.6 °F /  -7.4 °C 9.2 °F /  -12.7 °C 30.28in /  1025.3hPa WNW 1.5mph /  2.4km/h 10mph /  16.1km/h 66.3% 0.00in /  0mm 0 W/m2
04:00 18.5 °F /  -7.5 °C 9.4 °F /  -12.6 °C 30.28in /  1025.3hPa Calm   10mph /  16.1km/h 67% 0.00in /  0mm 0 W/m2
04:09 18.5 °F /  -7.5 °C 9.5 °F /  -12.5 °C 30.29in /  1025.6hPa Calm     67.4% 0.00in /  0mm 0 W/m2
04:14 18.4 °F /  -7.6 °C 9.6 °F /  -12.4 °C 30.29in /  1025.6hPa Calm     68% 0.00in /  0mm 0 W/m2
04:19 18.3 °F /  -7.6 °C 9.5 °F /  -12.5 °C 30.29in /  1025.6hPa Calm     68.1% 0.00in /  0mm 0 W/m2
04:24 18.2 °F /  -7.7 °C 9.7 °F /  -12.4 °C 30.30in /  1026hPa WNW 0.1mph /  0.2km/h 2mph /  3.2km/h 68.8% 0.00in /  0mm 0 W/m2
04:29 18.1 °F /  -7.7 °C 9.7 °F /  -12.4 °C 30.30in /  1026hPa Calm   2mph /  3.2km/h 69% 0.00in /  0mm 0 W/m2
04:34 18.1 °F /  -7.7 °C 9.7 °F /  -12.4 °C 30.30in /  1026hPa Calm   2mph /  3.2km/h 69% 0.00in /  0mm 0 W/m2
04:39 18 °F /  -7.8 °C 9.7 °F /  -12.4 °C 30.31in /  1026.3hPa Calm     69.3% 0.00in /  0mm 0 W/m2
04:44 17.9 °F /  -7.8 °C 9.8 °F /  -12.3 °C 30.31in /  1026.3hPa Calm     70% 0.00in /  0mm 0 W/m2
04:49 17.9 °F /  -7.8 °C 9.8 °F /  -12.3 °C 30.31in /  1026.3hPa Calm     70.1% 0.00in /  0mm 0 W/m2
04:54 17.8 °F /  -7.9 °C 10 °F /  -12.2 °C 30.31in /  1026.3hPa Calm     71% 0.00in /  0mm 0 W/m2
04:59 17.7 °F /  -7.9 °C 9.9 °F /  -12.3 °C 30.31in /  1026.3hPa Calm     71% 0.00in /  0mm 0 W/m2
05:04 17.6 °F /  -8 °C 9.9 °F /  -12.3 °C 30.32in /  1026.6hPa Calm     71% 0.00in /  0mm 0 W/m2
05:09 17.6 °F /  -8 °C 9.9 °F /  -12.3 °C 30.32in /  1026.6hPa Calm     71.2% 0.00in /  0mm 0 W/m2
05:14 17.5 °F /  -8.1 °C 10 °F /  -12.2 °C 30.32in /  1026.6hPa Calm     71.9% 0.00in /  0mm 0 W/m2
05:19 17.4 °F /  -8.1 °C 9.9 °F /  -12.3 °C 30.32in /  1026.6hPa Calm     72% 0.00in /  0mm 0 W/m2
05:24 17.3 °F /  -8.2 °C 9.8 °F /  -12.3 °C 30.32in /  1026.6hPa Calm     72% 0.00in /  0mm 0 W/m2
05:29 17.2 °F /  -8.2 °C 9.8 °F /  -12.3 °C 30.32in /  1026.6hPa Calm     72.3% 0.00in /  0mm 0 W/m2
05:34 17.1 °F /  -8.3 °C 10 °F /  -12.2 °C 30.32in /  1026.6hPa Calm     73% 0.00in /  0mm 0 W/m2
05:39 17 °F /  -8.3 °C 9.9 °F /  -12.3 °C 30.33in /  1027hPa Calm     73% 0.00in /  0mm 0 W/m2
05:44 17 °F /  -8.3 °C 9.8 °F /  -12.3 °C 30.33in /  1027hPa Calm     73% 0.00in /  0mm 0 W/m2
05:49 16.9 °F /  -8.4 °C 10 °F /  -12.2 °C 30.33in /  1027hPa Calm     73.8% 0.00in /  0mm 0 W/m2
05:54 16.8 °F /  -8.4 °C 10.1 °F /  -12.2 °C 30.34in /  1027.3hPa Calm     74.3% 0.00in /  0mm 0 W/m2
05:59 16.7 °F /  -8.5 °C 10.2 °F /  -12.1 °C 30.34in /  1027.3hPa Calm     75% 0.00in /  0mm 0 W/m2
06:04 16.7 °F /  -8.5 °C 10.2 °F /  -12.1 °C 30.35in /  1027.7hPa Calm     75% 0.00in /  0mm 0 W/m2
06:09 16.7 °F /  -8.5 °C 10.4 °F /  -12 °C 30.35in /  1027.7hPa Calm     76% 0.00in /  0mm 0 W/m2
06:14 16.6 °F /  -8.6 °C 10.4 °F /  -12 °C 30.35in /  1027.7hPa Calm     76% 0.00in /  0mm 0 W/m2
06:19 16.6 °F /  -8.6 °C 10.4 °F /  -12 °C 30.35in /  1027.7hPa Calm     76% 0.00in /  0mm 0 W/m2
06:24 16.6 °F /  -8.6 °C 10.4 °F /  -12 °C 30.35in /  1027.7hPa Calm     76.2% 0.00in /  0mm 0 W/m2
06:29 16.6 °F /  -8.6 °C 10.6 °F /  -11.9 °C 30.35in /  1027.7hPa Calm     76.7% 0.00in /  0mm 0 W/m2
06:34 16.6 °F /  -8.6 °C 10.8 °F /  -11.8 °C 30.36in /  1028hPa Calm     77.4% 0.00in /  0mm 0 W/m2
06:39 16.6 °F /  -8.6 °C 11 °F /  -11.7 °C 30.36in /  1028hPa Calm     78% 0.00in /  0mm 0 W/m2
06:44 16.6 °F /  -8.6 °C 10.9 °F /  -11.7 °C 30.36in /  1028hPa Calm     78% 0.00in /  0mm 0 W/m2
06:49 16.5 °F /  -8.6 °C 10.8 °F /  -11.8 °C 30.36in /  1028hPa Calm     78% 0.00in /  0mm 0 W/m2
06:54 16.4 °F /  -8.7 °C 10.7 °F /  -11.8 °C 30.36in /  1028hPa Calm     78% 0.00in /  0mm 0 W/m2
06:59 16.2 °F /  -8.8 °C 10.8 °F /  -11.8 °C 30.36in /  1028hPa Calm     78.8% 0.00in /  0mm 0 W/m2
07:04 16.2 °F /  -8.8 °C 11 °F /  -11.7 °C 30.37in /  1028.3hPa Calm     79.6% 0.00in /  0mm 0 W/m2
07:09 16.1 °F /  -8.8 °C 11.1 °F /  -11.6 °C 30.38in /  1028.7hPa Calm     80.1% 0.00in /  0mm 0 W/m2
07:14 16.1 °F /  -8.8 °C 11.3 °F /  -11.5 °C 30.38in /  1028.7hPa Calm     81% 0.00in /  0mm 0 W/m2
07:19 16.2 °F /  -8.8 °C 11.4 °F /  -11.4 °C 30.37in /  1028.3hPa Calm     81% 0.00in /  0mm 5 W/m2
07:24 16.2 °F /  -8.8 °C 11.8 °F /  -11.2 °C 30.38in /  1028.7hPa Calm     82.4% 0.00in /  0mm 7 W/m2
07:29 16.3 °F /  -8.7 °C 11.5 °F /  -11.4 °C 30.38in /  1028.7hPa Calm     81% 0.00in /  0mm 9 W/m2
07:33 16.3 °F /  -8.7 °C 11.5 °F /  -11.4 °C 30.38in /  1028.7hPa Calm     81.1% 0.00in /  0mm 11 W/m2
Hartford County Weather
Compliments of Weather Underground - 2 mb